Terminal Aerodrome Forecast
Issued by NWS

Home | Current Version | Previous Version | Text Only | Print | Product List | Glossary On
Versions: 1 2 3 4 5 6 7 8 9 10 11 12 13 14 15
775
FTUS44 KEPZ 240528
TAFDMN
TAF
KDMN 240528Z 2406/2506 30005KT P6SM FEW150 SCT250
     FM241700 28009KT P6SM FEW070
     FM242000 27010KT P6SM SCT070 SCT130 SCT250=

USA.gov is the U.S. government's official web portal to all federal, state and local government web resources and services.